createdAt,value
2016-10-15T00:00:57.984Z,9.23
2016-10-15T00:01:58.645Z,9.32
2016-10-15T00:02:59.360Z,9.29
2016-10-15T00:04:00.046Z,9.31
2016-10-15T00:05:00.718Z,9.29
2016-10-15T00:06:01.393Z,9.18
2016-10-15T00:07:02.056Z,9.22
2016-10-15T00:08:02.745Z,9.25
2016-10-15T00:09:03.433Z,9.21
2016-10-15T00:10:04.176Z,9.23
2016-10-15T00:11:04.851Z,9.22
2016-10-15T00:12:05.522Z,9.21
2016-10-15T00:13:06.253Z,9.21
2016-10-15T00:14:06.942Z,9.16
2016-10-15T00:15:07.603Z,9.19
2016-10-15T00:16:08.257Z,9.03
2016-10-15T00:17:08.934Z,9.11
2016-10-15T00:18:09.632Z,9.14
2016-10-15T00:19:10.339Z,9.1
2016-10-15T00:20:11.022Z,9.14
2016-10-15T00:21:11.671Z,9.08
2016-10-15T00:22:12.341Z,9.08
2016-10-15T00:23:13.026Z,9.08
2016-10-15T00:24:13.704Z,9.03
2016-10-15T00:25:14.366Z,9.06
2016-10-15T00:26:15.046Z,9.03
2016-10-15T00:27:15.717Z,9.04
2016-10-15T00:28:16.399Z,9.1
2016-10-15T00:29:17.068Z,9.13
2016-10-15T00:30:17.732Z,9.1
2016-10-15T00:31:18.402Z,9.1
2016-10-15T00:32:19.169Z,9.08
2016-10-15T00:33:19.836Z,9.11
2016-10-15T00:34:20.515Z,9.08
2016-10-15T00:35:21.180Z,9.03
2016-10-15T00:36:21.877Z,9.03
2016-10-15T00:37:22.539Z,9.06
2016-10-15T00:38:23.224Z,9.1
2016-10-15T00:39:23.885Z,9.04
2016-10-15T00:40:24.557Z,9.11
2016-10-15T00:41:25.229Z,9.1
2016-10-15T00:42:25.956Z,9.04
2016-10-15T00:43:26.632Z,9.04
2016-10-15T00:44:27.294Z,9.03
2016-10-15T00:45:27.968Z,9.08
2016-10-15T00:46:28.638Z,9.04
2016-10-15T00:47:29.309Z,9.1
2016-10-15T00:48:29.952Z,9.14
2016-10-15T00:49:30.612Z,9.04
2016-10-15T00:50:31.278Z,9.1
2016-10-15T00:51:31.963Z,9.08
2016-10-15T00:52:32.634Z,9.06
2016-10-15T00:53:33.298Z,8.92
2016-10-15T00:54:34.039Z,9.1
2016-10-15T00:55:34.693Z,9.14
2016-10-15T00:56:35.361Z,9.08
2016-10-15T00:57:36.104Z,8.99
2016-10-15T00:58:36.768Z,8.99
2016-10-15T00:59:37.443Z,8.99
2016-10-15T01:00:38.103Z,9.02
2016-10-15T01:01:38.777Z,8.99
2016-10-15T01:02:39.448Z,9.02
2016-10-15T01:03:40.107Z,9
2016-10-15T01:04:40.777Z,9.06
2016-10-15T01:05:41.469Z,9.02
2016-10-15T01:06:42.186Z,9.03
2016-10-15T01:07:42.843Z,9.02
2016-10-15T01:08:43.518Z,9.02
2016-10-15T01:09:44.187Z,9
2016-10-15T01:10:44.896Z,9.04
2016-10-15T01:11:45.557Z,8.92
2016-10-15T01:12:46.227Z,8.88
2016-10-15T01:13:46.896Z,9.03
2016-10-15T01:14:47.548Z,9
2016-10-15T01:15:48.232Z,9.02
2016-10-15T01:16:48.890Z,9.02
2016-10-15T01:17:49.589Z,9
2016-10-15T01:18:57.099Z,8.88
2016-10-15T01:19:57.770Z,9.03
2016-10-15T01:20:58.443Z,8.95
2016-10-15T01:21:59.089Z,8.91
2016-10-15T01:22:59.763Z,8.88
2016-10-15T01:24:00.435Z,8.99
2016-10-15T01:25:01.102Z,9
2016-10-15T01:26:01.779Z,9
2016-10-15T01:27:02.453Z,8.89
2016-10-15T01:28:03.121Z,8.97
2016-10-15T01:29:03.792Z,8.99
2016-10-15T01:30:04.467Z,8.91
2016-10-15T01:31:05.132Z,8.89
2016-10-15T01:32:05.783Z,8.92
2016-10-15T01:33:06.457Z,8.97
2016-10-15T01:34:07.127Z,8.89
2016-10-15T01:35:07.809Z,8.91
2016-10-15T01:36:08.493Z,8.95
2016-10-15T01:37:09.174Z,9.02
2016-10-15T01:38:09.839Z,8.91
2016-10-15T01:39:10.513Z,9.02
2016-10-15T01:40:11.182Z,9
2016-10-15T01:41:11.837Z,8.99
2016-10-15T01:42:13.316Z,8.97
2016-10-15T01:43:13.992Z,9
2016-10-15T01:44:14.643Z,8.95
2016-10-15T01:45:15.307Z,9.02
2016-10-15T01:46:16.000Z,9
2016-10-15T01:47:16.662Z,8.89
2016-10-15T01:48:17.331Z,8.99
2016-10-15T01:49:18.001Z,8.99
2016-10-15T01:50:18.661Z,8.89
2016-10-15T01:51:19.326Z,9.02
2016-10-15T01:52:19.999Z,8.91
2016-10-15T01:53:20.668Z,8.94
2016-10-15T01:54:21.319Z,8.97
2016-10-15T01:55:21.987Z,8.91
2016-10-15T01:56:22.660Z,8.84
2016-10-15T01:57:23.316Z,8.89
2016-10-15T01:58:23.985Z,8.91
2016-10-15T01:59:24.652Z,8.81
2016-10-15T02:00:25.323Z,8.84
2016-10-15T02:01:25.976Z,8.89
2016-10-15T02:02:26.642Z,8.88
2016-10-15T02:03:27.296Z,8.92
2016-10-15T02:04:27.972Z,8.88
2016-10-15T02:05:28.789Z,8.92
2016-10-15T02:06:29.490Z,8.92
2016-10-15T02:07:30.168Z,8.81
2016-10-15T02:08:30.887Z,8.79
2016-10-15T02:09:31.556Z,8.81
2016-10-15T02:10:32.223Z,8.79
2016-10-15T02:11:32.931Z,8.81
2016-10-15T02:12:33.602Z,8.81
2016-10-15T02:13:34.250Z,8.74
2016-10-15T02:14:34.970Z,8.84
2016-10-15T02:15:35.685Z,8.7
2016-10-15T02:16:36.474Z,8.76
2016-10-15T02:17:37.147Z,8.81
2016-10-15T02:18:37.849Z,8.73
2016-10-15T02:19:38.534Z,8.71
2016-10-15T02:20:39.210Z,8.71
2016-10-15T02:21:39.900Z,8.76
2016-10-15T02:22:40.557Z,8.73
2016-10-15T02:23:41.256Z,8.7
2016-10-15T02:24:41.999Z,8.69
2016-10-15T02:25:42.647Z,8.71
2016-10-15T02:26:43.326Z,8.67
2016-10-15T02:27:43.994Z,8.67
2016-10-15T02:28:44.716Z,8.7
2016-10-15T02:29:45.388Z,8.66
2016-10-15T02:30:46.064Z,8.58
2016-10-15T02:31:46.727Z,8.63
2016-10-15T02:32:47.480Z,8.64
2016-10-15T02:33:48.153Z,8.66
2016-10-15T02:34:48.832Z,8.7
2016-10-15T02:35:49.499Z,8.6
2016-10-15T02:36:50.163Z,8.6
2016-10-15T02:37:50.845Z,8.56
2016-10-15T02:38:51.508Z,8.63
2016-10-15T02:39:52.207Z,8.63
2016-10-15T02:40:52.909Z,8.63
2016-10-15T02:41:53.557Z,8.56
2016-10-15T02:42:54.226Z,8.63
2016-10-15T02:43:54.896Z,8.58
2016-10-15T02:44:55.578Z,8.53
2016-10-15T02:45:56.356Z,8.63
2016-10-15T02:46:57.018Z,8.61
2016-10-15T02:47:57.690Z,8.66
2016-10-15T02:48:58.354Z,8.6
2016-10-15T02:49:59.033Z,8.58
2016-10-15T02:50:59.723Z,8.55
2016-10-15T02:52:00.394Z,8.58
2016-10-15T02:53:01.055Z,8.6
2016-10-15T02:54:01.722Z,8.55
2016-10-15T02:55:02.383Z,8.6
2016-10-15T02:56:03.035Z,8.55
2016-10-15T02:57:03.706Z,8.6
2016-10-15T02:58:04.378Z,8.56
2016-10-15T02:59:05.054Z,8.48
2016-10-15T03:00:05.710Z,8.49
2016-10-15T03:01:06.440Z,8.58
2016-10-15T03:02:07.108Z,8.56
2016-10-15T03:03:07.809Z,8.58
2016-10-15T03:04:08.500Z,8.42
2016-10-15T03:05:09.208Z,8.51
2016-10-15T03:06:09.893Z,8.44
2016-10-15T03:07:10.569Z,8.55
2016-10-15T03:08:11.258Z,8.55
2016-10-15T03:09:11.945Z,8.55
2016-10-15T03:10:12.612Z,8.53
2016-10-15T03:11:13.291Z,8.6
2016-10-15T03:12:13.953Z,8.58
2016-10-15T03:13:14.615Z,8.55
2016-10-15T03:14:15.273Z,8.49
2016-10-15T03:15:15.957Z,8.56
2016-10-15T03:16:16.623Z,8.46
2016-10-15T03:17:17.299Z,8.49
2016-10-15T03:18:18.054Z,8.61
2016-10-15T03:19:18.721Z,8.49
2016-10-15T03:20:19.425Z,8.51
2016-10-15T03:21:20.092Z,8.51
2016-10-15T03:22:20.766Z,8.46
2016-10-15T03:23:21.435Z,8.45
2016-10-15T03:24:22.101Z,8.51
2016-10-15T03:25:22.771Z,8.56
2016-10-15T03:26:23.448Z,8.58
2016-10-15T03:27:24.163Z,8.56
2016-10-15T03:28:24.825Z,8.58
2016-10-15T03:29:25.525Z,8.55
2016-10-15T03:30:26.194Z,8.55
2016-10-15T03:31:26.856Z,8.49
2016-10-15T03:32:27.533Z,8.44
2016-10-15T03:33:28.210Z,8.48
2016-10-15T03:34:28.882Z,8.48
2016-10-15T03:35:29.562Z,8.53
2016-10-15T03:36:30.219Z,8.52
2016-10-15T03:37:30.904Z,8.48
2016-10-15T03:38:31.564Z,8.51
2016-10-15T03:39:32.235Z,8.48
2016-10-15T03:40:32.888Z,8.49
2016-10-15T03:41:33.550Z,8.48
2016-10-15T03:42:34.207Z,8.48
2016-10-15T03:43:34.882Z,8.51
2016-10-15T03:44:35.544Z,8.41
2016-10-15T03:45:36.230Z,8.48
2016-10-15T03:46:36.887Z,8.45
2016-10-15T03:47:37.565Z,8.45
2016-10-15T03:48:38.234Z,8.45
2016-10-15T03:49:38.905Z,8.45
2016-10-15T03:50:39.581Z,8.46
2016-10-15T03:51:40.249Z,8.46
2016-10-15T03:52:40.929Z,8.46
2016-10-15T03:53:41.600Z,8.46
2016-10-15T03:54:42.268Z,8.52
2016-10-15T03:55:42.946Z,8.51
2016-10-15T03:56:43.620Z,8.46
2016-10-15T03:57:44.289Z,8.42
2016-10-15T03:58:44.958Z,8.41
2016-10-15T03:59:45.647Z,8.3
2016-10-15T04:00:46.316Z,8.37
2016-10-15T04:01:46.973Z,8.36
2016-10-15T04:02:47.648Z,8.36
2016-10-15T04:03:48.321Z,8.33
2016-10-15T04:04:49.001Z,8.42
2016-10-15T04:05:49.669Z,8.28
2016-10-15T04:06:50.335Z,8.34
2016-10-15T04:07:51.019Z,8.33
2016-10-15T04:08:51.683Z,8.48
2016-10-15T04:09:52.356Z,8.33
2016-10-15T04:10:53.032Z,8.3
2016-10-15T04:11:53.703Z,8.33
2016-10-15T04:12:54.368Z,8.33
2016-10-15T04:13:55.055Z,8.3
2016-10-15T04:14:55.721Z,8.33
2016-10-15T04:15:56.390Z,8.31
2016-10-15T04:16:57.062Z,8.3
2016-10-15T04:17:57.742Z,8.37
2016-10-15T04:18:58.406Z,8.28
2016-10-15T04:19:59.077Z,8.44
2016-10-15T04:20:59.763Z,8.38
2016-10-15T04:22:00.433Z,8.34
2016-10-15T04:23:01.096Z,8.33
2016-10-15T04:24:01.768Z,8.36
2016-10-15T04:25:02.438Z,8.31
2016-10-15T04:26:03.109Z,8.33
2016-10-15T04:27:03.785Z,8.38
2016-10-15T04:28:04.468Z,8.3
2016-10-15T04:29:05.128Z,8.38
2016-10-15T04:30:05.802Z,8.33
2016-10-15T04:31:06.485Z,8.36
2016-10-15T04:32:07.149Z,8.33
2016-10-15T04:33:07.816Z,8.34
2016-10-15T04:34:08.497Z,8.45
2016-10-15T04:35:09.164Z,8.33
2016-10-15T04:36:09.838Z,8.38
2016-10-15T04:37:10.508Z,8.33
2016-10-15T04:38:11.181Z,8.36
2016-10-15T04:39:11.855Z,8.28
2016-10-15T04:40:12.524Z,8.34
2016-10-15T04:41:13.198Z,8.28
2016-10-15T04:42:13.873Z,8.42
2016-10-15T04:43:14.543Z,8.38
2016-10-15T04:44:15.190Z,8.34
2016-10-15T04:45:15.862Z,8.38
2016-10-15T04:46:16.524Z,8.42
2016-10-15T04:47:17.190Z,8.37
2016-10-15T04:48:17.854Z,8.36
2016-10-15T04:49:18.529Z,8.38
2016-10-15T04:50:19.202Z,8.31
2016-10-15T04:51:19.867Z,8.28
2016-10-15T04:52:20.539Z,8.26
2016-10-15T04:53:21.219Z,8.3
2016-10-15T04:54:21.890Z,8.31
2016-10-15T04:55:22.562Z,8.36
2016-10-15T04:56:23.240Z,8.3
2016-10-15T04:57:23.910Z,8.28
2016-10-15T04:58:24.573Z,8.3
2016-10-15T04:59:25.254Z,8.3
2016-10-15T05:00:25.918Z,8.38
2016-10-15T05:01:26.611Z,8.34
2016-10-15T05:02:27.298Z,8.31
2016-10-15T05:03:27.963Z,8.36
2016-10-15T05:04:28.640Z,8.31
2016-10-15T05:05:29.330Z,8.36
2016-10-15T05:06:30.014Z,8.31
2016-10-15T05:07:30.714Z,8.38
2016-10-15T05:08:31.374Z,8.28
2016-10-15T05:09:32.111Z,8.28
2016-10-15T05:10:32.767Z,8.31
2016-10-15T05:11:33.492Z,8.3
2016-10-15T05:12:34.153Z,8.34
2016-10-15T05:13:34.837Z,8.34
2016-10-15T05:14:35.507Z,8.31
2016-10-15T05:15:36.190Z,8.33
2016-10-15T05:16:36.854Z,8.31
2016-10-15T05:17:37.518Z,8.36
2016-10-15T05:18:38.186Z,8.3
2016-10-15T05:19:38.847Z,8.3
2016-10-15T05:20:39.543Z,8.34
2016-10-15T05:21:40.203Z,8.33
2016-10-15T05:22:40.875Z,8.26
2016-10-15T05:23:41.696Z,8.33
2016-10-15T05:24:42.217Z,8.3
2016-10-15T05:25:42.884Z,8.3
2016-10-15T05:26:43.586Z,8.37
2016-10-15T05:27:44.246Z,8.27
2016-10-15T05:28:44.920Z,8.26
2016-10-15T05:29:45.591Z,8.33
2016-10-15T05:30:46.261Z,8.28
2016-10-15T05:31:46.926Z,8.28
2016-10-15T05:32:47.600Z,8.24
2016-10-15T05:33:48.284Z,8.15
2016-10-15T05:34:48.959Z,8.19
2016-10-15T05:35:49.616Z,8.13
2016-10-15T05:36:50.299Z,8.24
2016-10-15T05:37:50.966Z,8.2
2016-10-15T05:38:51.632Z,8.09
2016-10-15T05:39:52.330Z,8.1
2016-10-15T05:40:53.011Z,8.13
2016-10-15T05:41:53.707Z,8.26
2016-10-15T05:42:54.372Z,8.08
2016-10-15T05:43:55.031Z,8.12
2016-10-15T05:44:55.727Z,8.03
2016-10-15T05:45:56.390Z,8
2016-10-15T05:46:57.055Z,7.98
2016-10-15T05:47:57.726Z,7.94
2016-10-15T05:48:58.397Z,7.95
2016-10-15T05:49:59.107Z,7.93
2016-10-15T05:50:59.797Z,7.94
2016-10-15T05:52:00.483Z,7.9
2016-10-15T05:53:01.152Z,7.97
2016-10-15T05:54:01.808Z,7.85
2016-10-15T05:55:02.487Z,7.79
2016-10-15T05:56:03.186Z,7.9
2016-10-15T05:57:03.844Z,7.88
2016-10-15T05:58:04.502Z,7.88
2016-10-15T05:59:05.184Z,7.85
2016-10-15T06:00:05.851Z,7.93
2016-10-15T06:01:06.520Z,7.94
2016-10-15T06:02:07.617Z,8.03
2016-10-15T06:03:08.275Z,7.85
2016-10-15T06:04:08.977Z,7.97
2016-10-15T06:05:09.638Z,7.97
2016-10-15T06:06:10.310Z,7.94
2016-10-15T06:07:10.965Z,7.87
2016-10-15T06:08:11.681Z,7.93
2016-10-15T06:09:12.369Z,7.88
2016-10-15T06:10:13.080Z,7.95
2016-10-15T06:11:13.760Z,7.97
2016-10-15T06:12:14.426Z,7.97
2016-10-15T06:13:15.099Z,7.91
2016-10-15T06:14:15.784Z,7.88
2016-10-15T06:15:16.450Z,7.95
2016-10-15T06:16:17.192Z,7.95
2016-10-15T06:17:17.882Z,7.95
2016-10-15T06:18:18.637Z,7.95
2016-10-15T06:19:19.339Z,7.97
2016-10-15T06:20:20.027Z,7.95
2016-10-15T06:21:20.690Z,7.94
2016-10-15T06:22:21.346Z,7.95
2016-10-15T06:23:22.026Z,7.98
2016-10-15T06:24:22.697Z,8.03
2016-10-15T06:25:23.364Z,7.98
2016-10-15T06:26:24.040Z,8.03
2016-10-15T06:27:24.726Z,8
2016-10-15T06:28:25.383Z,8.13
2016-10-15T06:29:26.063Z,8.09
2016-10-15T06:30:26.733Z,8.12
2016-10-15T06:31:27.402Z,8.09
2016-10-15T06:32:28.065Z,8.08
2016-10-15T06:33:28.740Z,8.06
2016-10-15T06:34:29.411Z,8.03
2016-10-15T06:35:30.065Z,8.03
2016-10-15T06:36:30.742Z,8.03
2016-10-15T06:37:31.429Z,8.08
2016-10-15T06:38:32.109Z,8.03
2016-10-15T06:39:32.781Z,8.08
2016-10-15T06:40:33.446Z,8.09
2016-10-15T06:41:34.110Z,8.09
2016-10-15T06:42:34.791Z,8.06
2016-10-15T06:43:35.470Z,8.09
2016-10-15T06:44:36.136Z,8.06
2016-10-15T06:45:36.809Z,8.06
2016-10-15T06:46:37.479Z,8.09
2016-10-15T06:47:38.152Z,8.06
2016-10-15T06:48:38.823Z,8.06
2016-10-15T06:49:39.498Z,8.03
2016-10-15T06:50:40.168Z,8.06
2016-10-15T06:51:40.846Z,8.12
2016-10-15T06:52:41.513Z,8.16
2016-10-15T06:53:42.191Z,8.08
2016-10-15T06:54:42.860Z,8.12
2016-10-15T06:55:43.535Z,8.08
2016-10-15T06:56:44.201Z,8.13
2016-10-15T06:57:44.879Z,8.08
2016-10-15T06:58:45.548Z,8.1
2016-10-15T06:59:46.305Z,8.08
2016-10-15T07:00:46.974Z,8.13
2016-10-15T07:01:47.639Z,8.08
2016-10-15T07:02:48.320Z,8.09
2016-10-15T07:03:48.993Z,8.08
2016-10-15T07:04:49.657Z,8.09
2016-10-15T07:05:50.310Z,8.13
2016-10-15T07:06:50.994Z,8.18
2016-10-15T07:07:51.651Z,8.2
2016-10-15T07:08:52.305Z,8.24
2016-10-15T07:09:52.977Z,8.26
2016-10-15T07:10:53.647Z,8.31
2016-10-15T07:11:54.340Z,8.31
2016-10-15T07:12:55.015Z,8.28
2016-10-15T07:13:55.767Z,8.24
2016-10-15T07:14:56.436Z,8.19
2016-10-15T07:15:57.113Z,8.28
2016-10-15T07:16:57.770Z,8.27
2016-10-15T07:17:58.430Z,8.28
2016-10-15T07:18:59.155Z,8.26
2016-10-15T07:19:59.817Z,8.24
2016-10-15T07:21:00.492Z,8.24
2016-10-15T07:22:01.225Z,8.28
2016-10-15T07:23:01.885Z,8.33
2016-10-15T07:24:02.588Z,8.33
2016-10-15T07:25:03.266Z,8.27
2016-10-15T07:26:04.116Z,8.27
2016-10-15T07:27:04.790Z,8.33
2016-10-15T07:28:05.454Z,8.28
2016-10-15T07:29:06.128Z,8.2
2016-10-15T07:30:06.829Z,8.3
2016-10-15T07:31:07.506Z,8.3
2016-10-15T07:32:08.176Z,8.28
2016-10-15T07:33:08.855Z,8.26
2016-10-15T07:34:09.518Z,8.33
2016-10-15T07:35:10.185Z,8.27
2016-10-15T07:36:10.866Z,8.31
2016-10-15T07:37:11.544Z,8.27
2016-10-15T07:38:12.210Z,8.27
2016-10-15T07:39:12.883Z,8.34
2016-10-15T07:40:13.629Z,8.3
2016-10-15T07:41:14.353Z,8.31
2016-10-15T07:42:15.020Z,8.31
2016-10-15T07:43:15.841Z,8.3
2016-10-15T07:44:16.591Z,8.26
2016-10-15T07:45:17.265Z,8.31
2016-10-15T07:46:17.934Z,8.33
2016-10-15T07:47:18.637Z,8.3
2016-10-15T07:48:19.312Z,8.34
2016-10-15T07:49:20.063Z,8.41
2016-10-15T07:50:20.792Z,8.36
2016-10-15T07:51:21.499Z,8.33
2016-10-15T07:52:22.151Z,8.38
2016-10-15T07:53:22.828Z,8.41
2016-10-15T07:54:23.496Z,8.36
2016-10-15T07:55:24.186Z,8.34
2016-10-15T07:56:24.912Z,8.38
2016-10-15T07:57:25.570Z,8.33
2016-10-15T07:58:26.304Z,8.41
2016-10-15T07:59:26.969Z,8.36
2016-10-15T08:00:27.710Z,8.33
2016-10-15T08:01:28.692Z,8.34
2016-10-15T08:02:29.438Z,8.38
2016-10-15T08:03:30.110Z,8.42
2016-10-15T08:04:30.793Z,8.42
2016-10-15T08:05:31.566Z,8.48
2016-10-15T08:06:32.233Z,8.41
2016-10-15T08:07:32.908Z,8.48
2016-10-15T08:08:33.599Z,8.44
2016-10-15T08:09:34.302Z,8.45
2016-10-15T08:10:34.977Z,8.49
2016-10-15T08:11:35.649Z,8.44
2016-10-15T08:12:36.323Z,8.52
2016-10-15T08:13:37.060Z,8.49
2016-10-15T08:14:37.721Z,8.45
2016-10-15T08:15:38.394Z,8.45
2016-10-15T08:16:39.089Z,8.58
2016-10-15T08:17:39.787Z,8.6
2016-10-15T08:18:40.454Z,8.61
2016-10-15T08:19:41.123Z,8.56
2016-10-15T08:20:41.881Z,8.69
2016-10-15T08:21:42.581Z,8.61
2016-10-15T08:22:43.249Z,8.58
2016-10-15T08:23:43.977Z,8.66
2016-10-15T08:24:44.674Z,8.64
2016-10-15T08:25:45.380Z,8.71
2016-10-15T08:26:46.091Z,8.67
2016-10-15T08:27:46.763Z,8.69
2016-10-15T08:28:47.447Z,8.63
2016-10-15T08:29:48.167Z,8.67
2016-10-15T08:30:48.838Z,8.66
2016-10-15T08:31:49.557Z,8.64
2016-10-15T08:32:50.275Z,8.73
2016-10-15T08:33:51.033Z,8.63
2016-10-15T08:34:51.673Z,8.69
2016-10-15T08:35:52.374Z,8.7
2016-10-15T08:36:53.077Z,8.64
2016-10-15T08:37:53.750Z,8.66
2016-10-15T08:38:54.523Z,8.69
2016-10-15T08:39:55.268Z,8.58
2016-10-15T08:40:56.067Z,8.66
2016-10-15T08:41:56.772Z,8.64
2016-10-15T08:42:57.454Z,8.67
2016-10-15T08:43:58.130Z,8.78
2016-10-15T08:44:59.008Z,8.71
2016-10-15T08:45:59.682Z,8.71
2016-10-15T08:47:00.352Z,8.71
2016-10-15T08:48:01.026Z,8.76
2016-10-15T08:49:01.708Z,8.78
2016-10-15T08:50:02.371Z,8.78
2016-10-15T08:51:03.052Z,8.79
2016-10-15T08:52:03.713Z,8.78
2016-10-15T08:53:04.390Z,8.79
2016-10-15T08:54:05.063Z,8.87
2016-10-15T08:55:05.740Z,8.78
2016-10-15T08:56:06.418Z,8.81
2016-10-15T08:57:07.122Z,8.87
2016-10-15T08:58:07.806Z,8.89
2016-10-15T08:59:08.490Z,8.92
2016-10-15T09:00:09.150Z,8.87
2016-10-15T09:01:09.879Z,8.87
2016-10-15T09:02:10.548Z,8.88
2016-10-15T09:03:11.209Z,8.89
2016-10-15T09:04:11.882Z,8.88
2016-10-15T09:05:12.564Z,8.89
2016-10-15T09:06:13.225Z,8.89
2016-10-15T09:07:13.907Z,8.92
2016-10-15T09:08:14.581Z,8.94
2016-10-15T09:09:15.307Z,8.95
2016-10-15T09:10:15.984Z,8.97
2016-10-15T09:11:16.677Z,8.94
2016-10-15T09:12:17.359Z,9.03
2016-10-15T09:13:18.036Z,9.04
2016-10-15T09:14:18.722Z,9.13
2016-10-15T09:15:19.391Z,9
2016-10-15T09:16:20.057Z,8.99
2016-10-15T09:17:20.723Z,9.03
2016-10-15T09:18:21.412Z,8.92
2016-10-15T09:19:22.130Z,9.08
2016-10-15T09:20:22.906Z,9.03
2016-10-15T09:21:23.620Z,9.03
2016-10-15T09:22:24.294Z,9.11
2016-10-15T09:23:24.970Z,9.08
2016-10-15T09:24:25.685Z,9.08
2016-10-15T09:25:26.389Z,9.08
2016-10-15T09:26:27.086Z,9.13
2016-10-15T09:27:27.764Z,9.1
2016-10-15T09:28:28.552Z,9.14
2016-10-15T09:29:29.236Z,9.16
2016-10-15T09:30:29.933Z,9.16
2016-10-15T09:31:30.606Z,9.1
2016-10-15T09:32:31.267Z,9.25
2016-10-15T09:33:31.946Z,9.19
2016-10-15T09:34:32.621Z,9.14
2016-10-15T09:35:33.347Z,9.21
2016-10-15T09:36:34.053Z,9.18
2016-10-15T09:37:34.732Z,9.18
2016-10-15T09:38:35.423Z,9.18
2016-10-15T09:39:36.059Z,9.14
2016-10-15T09:40:37.058Z,9.11
2016-10-15T09:41:37.656Z,9.19
2016-10-15T09:42:38.350Z,9.19
2016-10-15T09:43:39.035Z,9.19
2016-10-15T09:44:39.706Z,9.26
2016-10-15T09:45:40.377Z,9.34
2016-10-15T09:46:41.052Z,9.28
2016-10-15T09:47:41.733Z,9.29
2016-10-15T09:48:42.387Z,9.25
2016-10-15T09:49:43.078Z,9.32
2016-10-15T09:50:43.732Z,9.25
2016-10-15T09:51:44.411Z,9.26
2016-10-15T09:52:45.101Z,9.28
2016-10-15T09:53:45.773Z,9.26
2016-10-15T09:54:46.438Z,9.36
2016-10-15T09:55:47.139Z,9.31
2016-10-15T09:56:47.871Z,9.32
2016-10-15T09:57:48.558Z,9.31
2016-10-15T09:58:49.241Z,9.31
2016-10-15T09:59:49.927Z,9.34
2016-10-15T10:00:50.625Z,9.36
2016-10-15T10:01:51.301Z,9.37
2016-10-15T10:02:51.969Z,9.36
2016-10-15T10:03:52.635Z,9.36
2016-10-15T10:04:53.323Z,9.5
2016-10-15T10:05:54.004Z,9.44
2016-10-15T10:06:54.664Z,9.51
2016-10-15T10:07:55.329Z,9.44
2016-10-15T10:08:56.003Z,9.39
2016-10-15T10:09:56.683Z,9.39
2016-10-15T10:10:57.347Z,9.39
2016-10-15T10:11:58.021Z,9.34
2016-10-15T10:12:58.695Z,9.41
2016-10-15T10:13:59.363Z,9.37
2016-10-15T10:15:00.027Z,9.4
2016-10-15T10:16:00.835Z,9.34
2016-10-15T10:17:01.556Z,9.39
2016-10-15T10:18:02.239Z,9.4
2016-10-15T10:19:02.912Z,9.28
2016-10-15T10:20:03.579Z,9.32
2016-10-15T10:21:04.270Z,9.37
2016-10-15T10:22:04.948Z,9.39
2016-10-15T10:23:05.610Z,9.4
2016-10-15T10:24:06.273Z,9.36
2016-10-15T10:25:06.962Z,9.36
2016-10-15T10:26:07.625Z,9.4
2016-10-15T10:27:08.277Z,9.46
2016-10-15T10:28:08.937Z,9.32
2016-10-15T10:29:09.653Z,9.4
2016-10-15T10:30:10.378Z,9.47
2016-10-15T10:31:11.048Z,9.44
2016-10-15T10:32:11.762Z,9.44
2016-10-15T10:33:12.442Z,9.47
2016-10-15T10:34:13.102Z,9.47
2016-10-15T10:35:13.787Z,9.44
2016-10-15T10:36:14.515Z,9.46
2016-10-15T10:37:15.193Z,9.44
2016-10-15T10:38:15.857Z,9.47
2016-10-15T10:39:16.525Z,9.48
2016-10-15T10:40:17.197Z,9.54
2016-10-15T10:41:17.872Z,9.54
2016-10-15T10:42:18.534Z,9.51
2016-10-15T10:43:19.302Z,9.58
2016-10-15T10:44:19.898Z,9.61
2016-10-15T10:45:20.673Z,9.65
2016-10-15T10:46:21.347Z,9.65
2016-10-15T10:47:22.047Z,9.64
2016-10-15T10:48:22.741Z,9.66
2016-10-15T10:49:23.409Z,9.72
2016-10-15T10:50:24.084Z,9.72
2016-10-15T10:51:24.757Z,9.82
2016-10-15T10:52:25.430Z,9.69
2016-10-15T10:53:26.136Z,9.69
2016-10-15T10:54:26.819Z,9.74
2016-10-15T10:55:27.474Z,9.69
2016-10-15T10:56:28.154Z,9.79
2016-10-15T10:57:28.844Z,9.74
2016-10-15T10:58:29.509Z,9.73
2016-10-15T10:59:30.186Z,9.69
2016-10-15T11:00:30.858Z,9.73
2016-10-15T11:01:31.532Z,9.79
2016-10-15T11:02:32.197Z,9.89
2016-10-15T11:03:32.857Z,9.86
2016-10-15T11:04:33.530Z,9.89
2016-10-15T11:05:34.196Z,9.97
2016-10-15T11:06:34.925Z,9.95
2016-10-15T11:07:35.611Z,9.97
2016-10-15T11:08:36.270Z,9.98
2016-10-15T11:09:36.949Z,10.1
2016-10-15T11:10:37.608Z,10.05
2016-10-15T11:11:38.284Z,9.98
2016-10-15T11:12:38.953Z,9.97
2016-10-15T11:13:39.608Z,9.91
2016-10-15T11:14:40.316Z,9.97
2016-10-15T11:15:40.985Z,9.99
2016-10-15T11:16:41.645Z,9.97
2016-10-15T11:17:42.341Z,10.01
2016-10-15T11:18:43.071Z,9.97
2016-10-15T11:19:43.747Z,9.99
2016-10-15T11:20:44.431Z,9.94
2016-10-15T11:21:45.166Z,9.98
2016-10-15T11:22:45.840Z,9.87
2016-10-15T11:23:46.518Z,9.82
2016-10-15T11:24:47.455Z,9.98
2016-10-15T11:25:48.143Z,9.95
2016-10-15T11:26:48.898Z,9.98
2016-10-15T11:27:49.604Z,10.15
2016-10-15T11:28:50.275Z,10.09
2016-10-15T11:29:50.957Z,10.05
2016-10-15T11:30:51.672Z,10.02
2016-10-15T11:31:52.352Z,10.13
2016-10-15T11:32:53.121Z,10.05
2016-10-15T11:33:53.790Z,10.1
2016-10-15T11:34:54.494Z,9.98
2016-10-15T11:35:55.191Z,9.98
2016-10-15T11:36:55.871Z,10.04
2016-10-15T11:37:56.551Z,9.99
2016-10-15T11:38:57.214Z,10.01
2016-10-15T11:39:57.881Z,9.95
2016-10-15T11:40:58.659Z,10.01
2016-10-15T11:41:59.417Z,9.98
2016-10-15T11:43:00.082Z,10.07
2016-10-15T11:44:00.795Z,10.12
2016-10-15T11:45:01.481Z,10.09
2016-10-15T11:46:02.167Z,10.02
2016-10-15T11:47:02.842Z,10.09
2016-10-15T11:48:03.517Z,10.07
2016-10-15T11:49:04.206Z,10.26
2016-10-15T11:50:04.897Z,10.33
2016-10-15T11:51:05.562Z,10.22
2016-10-15T11:52:06.340Z,10.17
2016-10-15T11:53:06.997Z,10.26
2016-10-15T11:54:07.692Z,10.2
2016-10-15T11:55:08.366Z,10.31
2016-10-15T11:56:09.043Z,10.23
2016-10-15T11:57:09.730Z,10.34
2016-10-15T11:58:10.429Z,10.35
2016-10-15T11:59:11.140Z,10.31
2016-10-15T12:00:11.826Z,10.28
2016-10-15T12:01:12.529Z,10.17
2016-10-15T12:02:13.205Z,10.19
2016-10-15T12:03:13.906Z,10.26
2016-10-15T12:04:14.597Z,10.26
2016-10-15T12:05:15.250Z,10.25
2016-10-15T12:06:15.919Z,10.22
2016-10-15T12:07:16.594Z,10.12
2016-10-15T12:08:17.262Z,10.09
2016-10-15T12:09:17.966Z,10.07
2016-10-15T12:10:18.682Z,10.13
2016-10-15T12:11:19.464Z,10.07
2016-10-15T12:12:20.136Z,10.19
2016-10-15T12:13:20.844Z,10.23
2016-10-15T12:14:21.533Z,10.07
2016-10-15T12:15:22.217Z,10.13
2016-10-15T12:16:22.892Z,10.3
2016-10-15T12:17:23.599Z,10.17
2016-10-15T12:18:24.279Z,10.19
2016-10-15T12:19:24.959Z,10.15
2016-10-15T12:20:25.653Z,10.23
2016-10-15T12:21:26.325Z,10.12
2016-10-15T12:22:27.164Z,10.13
2016-10-15T12:23:27.856Z,10.12
2016-10-15T12:24:28.558Z,10.22
2016-10-15T12:25:29.382Z,10.15
2016-10-15T12:26:30.047Z,10.23
2016-10-15T12:27:30.732Z,10.2
2016-10-15T12:28:31.387Z,10.34
2016-10-15T12:29:32.079Z,10.25
2016-10-15T12:30:32.850Z,10.19
2016-10-15T12:31:33.519Z,10.35
2016-10-15T12:32:34.216Z,10.37
2016-10-15T12:33:35.058Z,10.2
2016-10-15T12:34:35.729Z,10.19
2016-10-15T12:35:36.423Z,10.23
2016-10-15T12:36:37.114Z,10.26
